Flight Track Log - Related Links

Times and Time Zones

All times are in EDT time to prevent confusion due to time zone crossing. See the DAL2033 flight status page for this flight to view local times or setup timezone preferences in your user account.

Time Position Orientation Groundspeed Altitude Reporting Facility
EDT Latitude Longitude Course Direction KTS MPH feet Rate Location/Type
Wed 03:24:21 PM 33.6667 -84.5000 North 216 249 3,100  Level Atlanta TRACON
Wed 03:25:21 PM 33.6833 -84.5667 287° West 239 275 6,500 3,100 Climbing Atlanta TRACON
Wed 03:26:00 PM 33.8735 -84.2068 320° Northwest  Level FlightAware Approximate
Wed 03:26:21 PM 33.7667 -84.5833 351° North 291 335 9,300  Level Atlanta TRACON
Wed 03:27:00 PM 33.9943 -84.2667 North  Level FlightAware Approximate
Wed 03:28:00 PM 34.1330 -84.2667 North  Level FlightAware Approximate
Wed 03:28:46 PM 33.9483 -84.3969 40° Northeast 363 418 13,600  Level Atlanta Center
Wed 03:29:00 PM 34.2718 -84.2667 North  Level FlightAware Approximate
Wed 03:29:46 PM 34.0528 -84.3597 16° North 381 438 16,000  Level Atlanta Center
Wed 03:30:46 PM 34.1758 -84.3175 16° North 402 463 18,000 1,850 Climbing Atlanta Center
Wed 03:31:46 PM 34.2992 -84.2778 15° North 441 507 19,700 1,750 Climbing Atlanta Center
Wed 03:32:46 PM 34.4286 -84.2478 11° North 454 522 21,500 1,850 Climbing Atlanta Center
Wed 03:33:46 PM 34.5558 -84.2178 11° North 461 531 23,400 1,600 Climbing Atlanta Center
Wed 03:34:46 PM 34.6853 -84.1903 10° North 477 549 24,700 1,500 Climbing Atlanta Center
Wed 03:35:46 PM 34.8211 -84.1578 11° North 477 549 26,400 1,900 Climbing Atlanta Center
Wed 03:36:46 PM 34.9525 -84.1275 11° North 477 549 28,500 1,700 Climbing Atlanta Center
Wed 03:37:46 PM 35.0839 -84.0972 11° North 482 555 29,800 1,200 Climbing Atlanta Center
Wed 03:38:46 PM 35.2175 -84.0617 12° North 482 555 30,900 1,200 Climbing Atlanta Center
Wed 03:39:46 PM 35.3489 -84.0336 10° North 482 555 32,200 1,050 Climbing Atlanta Center
Wed 03:40:46 PM 35.4764 -84.0006 12° North 477 549 33,000 400 Climbing Atlanta Center
Wed 03:41:46 PM 35.6014 -83.9697 11° North 470 541 33,000  Level Atlanta Center
Wed 03:42:46 PM 35.7308 -83.9364 12° North 470 541 33,000  Level Atlanta Center
Wed 03:43:46 PM 35.8600 -83.9081 10° North 470 541 33,000  Level Atlanta Center
Wed 03:44:46 PM 35.9850 -83.8436 23° Northeast 470 541 33,000  Level Atlanta Center
Wed 03:46:14 PM 36.1583 -83.7328 27° Northeast 500 575 33,000  Level Indianapolis Center
Wed 03:47:16 PM 36.2814 -83.6528 28° Northeast 500 575 33,000  Level Indianapolis Center
Wed 03:48:18 PM 36.4053 -83.5744 27° Northeast 500 575 33,000  Level Indianapolis Center
Wed 03:49:20 PM 36.5417 -83.4886 27° Northeast 500 575 33,000  Level Indianapolis Center
Wed 03:50:22 PM 36.6639 -83.4011 30° Northeast 500 575 33,000  Level Indianapolis Center
Wed 03:51:24 PM 36.7789 -83.2903 38° Northeast 516 594 33,000  Level Indianapolis Center
Wed 03:52:26 PM 36.9150 -83.1606 37° Northeast 518 596 33,000  Level Indianapolis Center
Wed 03:53:29 PM 37.0336 -83.0494 37° Northeast 518 596 33,000  Level Indianapolis Center
Wed 03:54:31 PM 37.1522 -82.9367 37° Northeast 520 598 33,000  Level Indianapolis Center
Wed 03:55:33 PM 37.2694 -82.8250 37° Northeast 520 598 33,000  Level Indianapolis Center
Wed 03:56:35 PM 37.3861 -82.7136 37° Northeast 521 600 33,000  Level Indianapolis Center
Wed 03:57:37 PM 37.5025 -82.6017 37° Northeast 521 600 33,000  Level Indianapolis Center
Wed 03:58:39 PM 37.6197 -82.4911 37° Northeast 522 601 33,000  Level Indianapolis Center
Wed 03:59:41 PM 37.7561 -82.3583 38° Northeast 525 604 33,000  Level Indianapolis Center
Wed 04:00:43 PM 37.8725 -82.2436 38° Northeast 528 608 33,000  Level Indianapolis Center
Wed 04:01:45 PM 37.9781 -82.1406 38° Northeast 528 608 33,000  Level Indianapolis Center
Wed 04:02:47 PM 38.0942 -82.0250 38° Northeast 528 608 33,000  Level Indianapolis Center
Wed 04:03:49 PM 38.2325 -81.8872 38° Northeast 528 608 33,000  Level Indianapolis Center
Wed 04:04:52 PM 38.3472 -81.7711 38° Northeast 528 608 33,000  Level Indianapolis Center
Wed 04:05:54 PM 38.4497 -81.6314 47° Northeast 538 619 33,000  Level Indianapolis Center
Wed 04:06:56 PM 38.5464 -81.4886 49° Northeast 539 620 33,000  Level Indianapolis Center
Wed 04:07:58 PM 38.6628 -81.3208 48° Northeast 540 621 33,000  Level Indianapolis Center
Wed 04:09:00 PM 38.7619 -81.1794 48° Northeast 540 621 33,000  Level Indianapolis Center
Wed 04:10:02 PM 38.8619 -81.0350 48° Northeast 541 623 33,000  Level Indianapolis Center
Wed 04:11:04 PM 38.9608 -80.8917 48° Northeast 541 623 33,000  Level Indianapolis Center
Wed 04:12:06 PM 39.0606 -80.7467 48° Northeast 540 621 33,000  Level Indianapolis Center
Wed 04:13:08 PM 39.1636 -80.6061 47° Northeast 540 621 33,000  Level Indianapolis Center
Wed 04:14:10 PM 39.2872 -80.4336 47° Northeast 542 624 33,000  Level Indianapolis Center
Wed 04:15:12 PM 39.3889 -80.2886 48° Northeast 542 624 33,000  Level Indianapolis Center
Wed 04:16:14 PM 39.4903 -80.1447 48° Northeast 542 624 33,000  Level Indianapolis Center
Wed 04:17:15 PM 39.5914 -79.9978 48° Northeast 543 625 33,000  Level Cleveland Center
Wed 04:18:17 PM 39.6917 -79.8500 49° Northeast 545 627 33,000  Level Cleveland Center
Wed 04:19:19 PM 39.7900 -79.7036 49° Northeast 545 627 33,000  Level Cleveland Center
Wed 04:20:21 PM 39.9092 -79.5267 49° Northeast 545 627 33,000  Level Cleveland Center
Wed 04:21:24 PM 40.0089 -79.3806 48° Northeast 545 627 33,000  Level Cleveland Center
Wed 04:22:26 PM 40.1014 -79.2422 49° Northeast 543 625 33,000  Level Cleveland Center
Wed 04:23:28 PM 40.2186 -79.0667 49° Northeast 538 619 33,000  Level Cleveland Center
Wed 04:24:30 PM 40.3167 -78.9203 49° Northeast 538 619 33,000  Level Cleveland Center
Wed 04:25:32 PM 40.4131 -78.7717 50° Northeast 539 620 33,000  Level Cleveland Center
Wed 04:26:34 PM 40.5122 -78.6211 49° Northeast 544 626 33,000  Level Cleveland Center
Wed 04:27:36 PM 40.6106 -78.4697 49° Northeast 550 633 33,000  Level Cleveland Center
Wed 04:28:38 PM 40.7281 -78.2886 49° Northeast 551 634 33,000  Level Cleveland Center
Wed 04:29:40 PM 40.8258 -78.1389 49° Northeast 550 633 33,000  Level Cleveland Center
Wed 04:30:43 PM 40.9222 -77.9869 50° Northeast 550 633 33,000  Level Cleveland Center
Wed 04:31:45 PM 41.0217 -77.8414 48° Northeast 544 626 33,000  Level Cleveland Center
Wed 04:32:47 PM 41.1428 -77.6675 47° Northeast 543 625 33,000 -290 Level Cleveland Center
Wed 04:33:49 PM 41.2417 -77.5203 48° Northeast 542 624 32,400 -1,258 Descending Cleveland Center
Wed 04:34:51 PM 41.3417 -77.3739 48° Northeast 540 621 30,400 -1,839 Descending Cleveland Center
Wed 04:35:53 PM 41.4394 -77.2278 48° Northeast 537 618 28,600 -1,645 Descending Cleveland Center
Wed 04:36:55 PM 41.5353 -77.0847 48° Northeast 524 603 27,000 -774 Descending Cleveland Center
Wed 04:37:57 PM 41.6492 -76.9128 48° Northeast 509 586 27,000 -47 Level Cleveland Center
Wed 04:39:02 PM 41.7381 -76.7781 48° Northeast 512 589 26,900  Descending New York Center
Wed 04:40:02 PM 41.8239 -76.6467 49° Northeast 489 563 27,000 -363 Climbing New York Center
Wed 04:42:04 PM 42.0092 -76.3683 48° Northeast 464 534 25,800 -848 Descending Boston Center
Wed 04:43:06 PM 42.0936 -76.2397 48° Northeast 457 526 24,400 -878 Descending Boston Center
Wed 04:44:07 PM 42.1706 -76.1103 51° Northeast 442 509 24,000 -197 Descending Boston Center
Wed 04:45:08 PM 42.2244 -75.9581 64° Northeast 446 513 24,000  Level Boston Center
Wed 04:46:10 PM 42.2767 -75.8061 65° Northeast 446 513 24,000 -390 Level Boston Center
Wed 04:47:11 PM 42.3247 -75.6639 65° Northeast 440 506 23,200 -1,033 Descending Boston Center
Wed 04:48:12 PM 42.3750 -75.5172 65° Northeast 435 501 21,900 -1,475 Descending Boston Center
Wed 04:49:13 PM 42.4206 -75.3361 71° East 431 496 20,200 -1,463 Descending Boston Center
Wed 04:50:15 PM 42.4342 -75.1825 83° East 415 478 18,900 -1,415 Descending Boston Center
Wed 04:51:16 PM 42.4489 -75.0303 82° East 411 473 17,300 -1,672 Descending Boston Center
Wed 04:52:17 PM 42.4611 -74.8792 84° East 407 468 15,500 -1,781 Descending Boston Center
Wed 04:52:20 PM 42.4614 -74.8589 89° East 402 463 15,400 -1,957 Descending Boston Center
Wed 04:53:03 PM 42.4719 -74.7606 82° East 391 450 14,000 -2,034 Descending Boston Center
Wed 04:53:19 PM 42.4756 -74.7256 82° East 392 451 13,400 -2,182 Descending Boston Center
Wed 04:54:09 PM 42.4867 -74.6058 83° East 379 436 11,600 -2,361 Descending Boston Center
Wed 04:54:20 PM 42.4914 -74.5739 79° East 381 438 11,000 -667 Descending Boston Center
Wed 04:55:21 PM 42.5289 -74.4458 68° East 379 436 10,800 -595 Descending Boston Center
Wed 04:56:11 PM 42.5911 -74.3744 40° Northeast 348 400 9,900 -1,082 Descending Boston Center
Wed 04:56:22 PM 42.6022 -74.3586 46° Northeast 354 407 9,700 -1,600 Descending Boston Center
Wed 04:57:11 PM 42.6592 -74.2875 43° Northeast 332 382 8,300 -1,548 Descending Boston Center
Wed 04:57:24 PM 42.6708 -74.2733 42° Northeast 337 388 8,100 -1,475 Descending Boston Center
Wed 04:58:12 PM 42.7294 -74.2097 39° Northeast 325 374 6,800 -1,475 Descending Boston Center
Wed 04:58:25 PM 42.7403 -74.1944 46° Northeast 326 375 6,600 -1,475 Descending Boston Center
Wed 04:59:13 PM 42.7994 -74.1344 37° Northeast 318 366 5,300 -1,574 Descending Boston Center
Wed 04:59:26 PM 42.8158 -74.1158 40° Northeast 318 366 5,000 -900 Descending Boston Center
Wed 05:00:13 PM 42.8675 -74.0703 33° Northeast 281 323 4,400 -787 Descending Boston Center
Wed 05:00:27 PM 42.8808 -74.0558 38° Northeast 279 321 4,200 -984 Descending Boston Center
Wed 05:01:14 PM 42.9033 -74.0036 60° Northeast 199 229 3,400 -1,065 Descending Boston Center
Wed 05:01:29 PM 42.9061 -73.9864 78° East 208 239 3,100 -393 Descending Boston Center
Wed 05:02:15 PM 42.9150 -73.9289 78° East 198 228 3,000 -197 Descending Boston Center
Wed 05:02:30 PM 42.9172 -73.9089 81° East 207 238 2,900 -1,100 Descending Boston Center
Wed 05:03:15 PM 42.9225 -73.8525 83° East 197 227 1,900 -885 Descending Boston Center
Wed 05:03:31 PM 42.9131 -73.8372 130° Southeast 186 214 2,000 98 Climbing Boston Center
Wed 05:04:16 PM 42.8886 -73.8147 146° Southeast 152 175 2,000  Level Boston Center
Wed 05:04:32 PM 42.8758 -73.8117 170° South 156 180 2,000  Level Boston Center
Wed 05:05:17 PM 42.8447 -73.8086 176° South 154 177 2,000 -295 Level Boston Center
Wed 05:05:33 PM 42.8328 -73.8083 179° South 155 178 1,700 -800 Descending Boston Center
Wed 05:06:17 PM 42.8064 -73.8072 178° South 126 145 1,200 -581 Descending Boston Center
Wed 05:06:35 PM 42.7981 -73.8069 179° South 132 152 1,100 -689 Descending Boston Center
Wed 05:07:18 PM 42.7719 -73.8072 180° South 123 142 500 -787 Descending Boston Center
Wed 05:07:36 PM 42.7631 -73.8056 172° South 126 145 300 -667 Descending Boston Center

Login

Don't have an account? Register now (free) for customized features, flight alerts, and more!